sensor_id;sensor_type;location;lat;lon;timestamp;pressure;altitude;pressure_sealevel;temperature;humidity
48095;BME280;33874;52.070;-0.516;2023-04-26T00:01:00;101594.27;;;5.51;58.18
48095;BME280;33874;52.070;-0.516;2023-04-26T00:03:39;101588.85;;;5.52;58.26
48095;BME280;33874;52.070;-0.516;2023-04-26T00:06:07;101586.23;;;5.52;58.08
48095;BME280;33874;52.070;-0.516;2023-04-26T00:08:36;101591.11;;;5.52;58.21
48095;BME280;33874;52.070;-0.516;2023-04-26T00:11:04;101587.66;;;5.51;58.39
48095;BME280;33874;52.070;-0.516;2023-04-26T00:16:25;101578.92;;;5.44;58.53
48095;BME280;33874;52.070;-0.516;2023-04-26T00:18:53;101583.20;;;5.43;58.63
48095;BME280;33874;52.070;-0.516;2023-04-26T00:21:23;101573.41;;;5.40;58.92
48095;BME280;33874;52.070;-0.516;2023-04-26T00:23:51;101569.73;;;5.37;58.83
48095;BME280;33874;52.070;-0.516;2023-04-26T00:26:19;101572.75;;;5.32;58.99
48095;BME280;33874;52.070;-0.516;2023-04-26T00:28:46;101574.69;;;5.28;59.14
48095;BME280;33874;52.070;-0.516;2023-04-26T00:31:15;101575.64;;;5.26;59.19
48095;BME280;33874;52.070;-0.516;2023-04-26T00:33:43;101578.48;;;5.25;59.37
48095;BME280;33874;52.070;-0.516;2023-04-26T00:36:12;101575.98;;;5.23;59.59
48095;BME280;33874;52.070;-0.516;2023-04-26T00:38:40;101574.92;;;5.20;59.78
48095;BME280;33874;52.070;-0.516;2023-04-26T00:41:08;101575.25;;;5.17;60.06
48095;BME280;33874;52.070;-0.516;2023-04-26T00:43:42;101575.38;;;5.14;60.29
48095;BME280;33874;52.070;-0.516;2023-04-26T00:46:10;101564.20;;;5.11;60.25
48095;BME280;33874;52.070;-0.516;2023-04-26T00:48:39;101562.81;;;5.07;60.26
48095;BME280;33874;52.070;-0.516;2023-04-26T00:51:07;101563.33;;;5.04;60.48
48095;BME280;33874;52.070;-0.516;2023-04-26T00:53:39;101562.43;;;5.00;60.55
48095;BME280;33874;52.070;-0.516;2023-04-26T00:56:11;101560.70;;;4.97;60.67
48095;BME280;33874;52.070;-0.516;2023-04-26T00:58:39;101554.99;;;4.93;60.91
48095;BME280;33874;52.070;-0.516;2023-04-26T01:01:07;101555.39;;;4.88;60.74
48095;BME280;33874;52.070;-0.516;2023-04-26T01:03:36;101559.25;;;4.83;60.84
48095;BME280;33874;52.070;-0.516;2023-04-26T01:06:05;101560.16;;;4.79;60.98
48095;BME280;33874;52.070;-0.516;2023-04-26T01:08:33;101561.30;;;4.77;61.06
48095;BME280;33874;52.070;-0.516;2023-04-26T01:11:01;101556.88;;;4.75;61.11
48095;BME280;33874;52.070;-0.516;2023-04-26T01:13:31;101556.65;;;4.72;61.21
48095;BME280;33874;52.070;-0.516;2023-04-26T01:15:59;101556.06;;;4.70;61.23
48095;BME280;33874;52.070;-0.516;2023-04-26T01:18:28;101555.11;;;4.68;61.36
48095;BME280;33874;52.070;-0.516;2023-04-26T01:20:55;101554.20;;;4.66;61.48
48095;BME280;33874;52.070;-0.516;2023-04-26T01:23:23;101553.61;;;4.63;61.39
48095;BME280;33874;52.070;-0.516;2023-04-26T01:25:51;101549.77;;;4.60;61.64
48095;BME280;33874;52.070;-0.516;2023-04-26T01:28:20;101550.36;;;4.58;61.89
48095;BME280;33874;52.070;-0.516;2023-04-26T01:30:49;101550.02;;;4.58;61.93
48095;BME280;33874;52.070;-0.516;2023-04-26T01:33:17;101545.37;;;4.57;61.94
48095;BME280;33874;52.070;-0.516;2023-04-26T01:35:46;101543.86;;;4.56;62.11
48095;BME280;33874;52.070;-0.516;2023-04-26T01:38:23;101544.30;;;4.58;62.32
48095;BME280;33874;52.070;-0.516;2023-04-26T01:40:52;101540.77;;;4.59;62.55
48095;BME280;33874;52.070;-0.516;2023-04-26T01:43:20;101541.90;;;4.61;62.60
48095;BME280;33874;52.070;-0.516;2023-04-26T01:45:49;101546.55;;;4.62;62.72
48095;BME280;33874;52.070;-0.516;2023-04-26T01:48:17;101543.88;;;4.63;62.78
48095;BME280;33874;52.070;-0.516;2023-04-26T01:50:45;101539.38;;;4.66;62.95
48095;BME280;33874;52.070;-0.516;2023-04-26T01:53:13;101536.83;;;4.68;63.09
48095;BME280;33874;52.070;-0.516;2023-04-26T01:55:44;101533.48;;;4.69;63.20
48095;BME280;33874;52.070;-0.516;2023-04-26T01:58:13;101534.65;;;4.70;63.27
48095;BME280;33874;52.070;-0.516;2023-04-26T02:00:40;101536.72;;;4.70;63.31
48095;BME280;33874;52.070;-0.516;2023-04-26T02:03:08;101533.63;;;4.70;63.32
48095;BME280;33874;52.070;-0.516;2023-04-26T02:05:39;101528.48;;;4.68;63.23
48095;BME280;33874;52.070;-0.516;2023-04-26T02:08:11;101525.46;;;4.66;63.44
48095;BME280;33874;52.070;-0.516;2023-04-26T02:10:38;101522.30;;;4.63;63.32
48095;BME280;33874;52.070;-0.516;2023-04-26T02:13:07;101520.38;;;4.59;63.47
48095;BME280;33874;52.070;-0.516;2023-04-26T02:15:35;101524.11;;;4.54;63.45
48095;BME280;33874;52.070;-0.516;2023-04-26T02:18:04;101521.40;;;4.48;63.44
48095;BME280;33874;52.070;-0.516;2023-04-26T02:20:42;101525.13;;;4.43;63.60
48095;BME280;33874;52.070;-0.516;2023-04-26T02:23:11;101524.90;;;4.37;63.64
48095;BME280;33874;52.070;-0.516;2023-04-26T02:25:41;101524.11;;;4.31;63.96
48095;BME280;33874;52.070;-0.516;2023-04-26T02:28:12;101526.27;;;4.26;63.89
48095;BME280;33874;52.070;-0.516;2023-04-26T02:30:50;101520.27;;;4.20;64.04
48095;BME280;33874;52.070;-0.516;2023-04-26T02:33:18;101515.59;;;4.16;64.28
48095;BME280;33874;52.070;-0.516;2023-04-26T02:35:46;101513.84;;;4.13;64.27
48095;BME280;33874;52.070;-0.516;2023-04-26T02:38:14;101512.85;;;4.11;64.44
48095;BME280;33874;52.070;-0.516;2023-04-26T02:40:42;101511.99;;;4.11;64.56
48095;BME280;33874;52.070;-0.516;2023-04-26T02:43:10;101510.82;;;4.10;64.60
48095;BME280;33874;52.070;-0.516;2023-04-26T02:45:41;101510.52;;;4.09;64.83
48095;BME280;33874;52.070;-0.516;2023-04-26T02:48:12;101504.84;;;4.08;64.98
48095;BME280;33874;52.070;-0.516;2023-04-26T02:50:40;101506.95;;;4.07;64.92
48095;BME280;33874;52.070;-0.516;2023-04-26T02:53:08;101505.80;;;4.06;64.95
48095;BME280;33874;52.070;-0.516;2023-04-26T02:55:36;101509.04;;;4.04;64.97
48095;BME280;33874;52.070;-0.516;2023-04-26T02:58:04;101510.05;;;4.00;65.17
48095;BME280;33874;52.070;-0.516;2023-04-26T03:00:33;101510.00;;;3.98;65.10
48095;BME280;33874;52.070;-0.516;2023-04-26T03:03:01;101509.62;;;3.95;65.22
48095;BME280;33874;52.070;-0.516;2023-04-26T03:05:30;101509.39;;;3.92;65.24
48095;BME280;33874;52.070;-0.516;2023-04-26T03:07:58;101513.17;;;3.89;65.28
48095;BME280;33874;52.070;-0.516;2023-04-26T03:10:26;101511.06;;;3.85;65.29
48095;BME280;33874;52.070;-0.516;2023-04-26T03:12:54;101506.31;;;3.83;65.52
48095;BME280;33874;52.070;-0.516;2023-04-26T03:15:22;101505.36;;;3.81;65.71
48095;BME280;33874;52.070;-0.516;2023-04-26T03:17:50;101505.60;;;3.79;65.74
48095;BME280;33874;52.070;-0.516;2023-04-26T03:20:18;101504.09;;;3.78;65.69
48095;BME280;33874;52.070;-0.516;2023-04-26T03:22:47;101505.08;;;3.76;65.74
48095;BME280;33874;52.070;-0.516;2023-04-26T03:25:15;101508.28;;;3.74;65.85
48095;BME280;33874;52.070;-0.516;2023-04-26T03:27:46;101508.84;;;3.73;65.93
48095;BME280;33874;52.070;-0.516;2023-04-26T03:30:15;101509.35;;;3.73;66.02
48095;BME280;33874;52.070;-0.516;2023-04-26T03:32:43;101503.98;;;3.73;66.11
48095;BME280;33874;52.070;-0.516;2023-04-26T03:35:11;101505.01;;;3.73;66.18
48095;BME280;33874;52.070;-0.516;2023-04-26T03:37:39;101503.30;;;3.73;66.33
48095;BME280;33874;52.070;-0.516;2023-04-26T03:40:07;101499.80;;;3.73;66.41
48095;BME280;33874;52.070;-0.516;2023-04-26T03:42:36;101496.09;;;3.74;66.67
48095;BME280;33874;52.070;-0.516;2023-04-26T03:45:04;101492.94;;;3.75;66.65
48095;BME280;33874;52.070;-0.516;2023-04-26T03:47:32;101489.05;;;3.76;66.72
48095;BME280;33874;52.070;-0.516;2023-04-26T03:50:00;101491.05;;;3.78;66.72
48095;BME280;33874;52.070;-0.516;2023-04-26T03:52:28;101498.83;;;3.79;66.94
48095;BME280;33874;52.070;-0.516;2023-04-26T03:54:59;101502.23;;;3.81;67.10
48095;BME280;33874;52.070;-0.516;2023-04-26T03:57:27;101496.59;;;3.83;67.16
48095;BME280;33874;52.070;-0.516;2023-04-26T03:59:55;101489.70;;;3.85;67.09
48095;BME280;33874;52.070;-0.516;2023-04-26T04:02:23;101487.69;;;3.88;67.22
48095;BME280;33874;52.070;-0.516;2023-04-26T04:04:51;101485.52;;;3.90;67.21
48095;BME280;33874;52.070;-0.516;2023-04-26T04:07:19;101487.27;;;3.92;67.39
48095;BME280;33874;52.070;-0.516;2023-04-26T04:09:49;101482.89;;;3.93;67.36
48095;BME280;33874;52.070;-0.516;2023-04-26T04:12:17;101483.48;;;3.96;67.43
48095;BME280;33874;52.070;-0.516;2023-04-26T04:14:45;101481.48;;;3.98;67.45
48095;BME280;33874;52.070;-0.516;2023-04-26T04:17:13;101484.34;;;4.00;67.58
48095;BME280;33874;52.070;-0.516;2023-04-26T04:19:41;101483.20;;;4.02;67.51
48095;BME280;33874;52.070;-0.516;2023-04-26T04:22:09;101482.77;;;4.03;67.57
48095;BME280;33874;52.070;-0.516;2023-04-26T04:24:36;101480.64;;;4.05;67.54
48095;BME280;33874;52.070;-0.516;2023-04-26T04:27:05;101476.34;;;4.07;67.60
48095;BME280;33874;52.070;-0.516;2023-04-26T04:29:33;101478.02;;;4.09;67.64
48095;BME280;33874;52.070;-0.516;2023-04-26T04:32:01;101480.70;;;4.11;67.61
48095;BME280;33874;52.070;-0.516;2023-04-26T04:34:32;101482.77;;;4.11;67.51
48095;BME280;33874;52.070;-0.516;2023-04-26T04:37:01;101484.92;;;4.13;67.61
48095;BME280;33874;52.070;-0.516;2023-04-26T04:39:34;101484.64;;;4.16;67.58
48095;BME280;33874;52.070;-0.516;2023-04-26T04:42:02;101478.28;;;4.18;67.56
48095;BME280;33874;52.070;-0.516;2023-04-26T04:44:30;101480.80;;;4.20;67.64
48095;BME280;33874;52.070;-0.516;2023-04-26T04:46:58;101475.75;;;4.23;67.71
48095;BME280;33874;52.070;-0.516;2023-04-26T04:49:26;101473.48;;;4.27;67.78
48095;BME280;33874;52.070;-0.516;2023-04-26T04:51:54;101471.52;;;4.32;67.94
48095;BME280;33874;52.070;-0.516;2023-04-26T04:54:23;101473.09;;;4.36;67.82
48095;BME280;33874;52.070;-0.516;2023-04-26T04:56:50;101478.85;;;4.40;67.84
48095;BME280;33874;52.070;-0.516;2023-04-26T04:59:18;101471.36;;;4.43;67.96
48095;BME280;33874;52.070;-0.516;2023-04-26T05:01:47;101466.63;;;4.48;67.90
48095;BME280;33874;52.070;-0.516;2023-04-26T05:04:14;101464.09;;;4.53;67.94
48095;BME280;33874;52.070;-0.516;2023-04-26T05:06:43;101462.45;;;4.58;68.01
48095;BME280;33874;52.070;-0.516;2023-04-26T05:09:11;101465.48;;;4.64;68.00
48095;BME280;33874;52.070;-0.516;2023-04-26T05:11:39;101466.42;;;4.69;68.06
48095;BME280;33874;52.070;-0.516;2023-04-26T05:14:06;101464.07;;;4.75;68.24
48095;BME280;33874;52.070;-0.516;2023-04-26T05:16:34;101468.30;;;4.80;68.10
48095;BME280;33874;52.070;-0.516;2023-04-26T05:19:05;101469.11;;;4.86;67.90
48095;BME280;33874;52.070;-0.516;2023-04-26T05:21:45;101468.85;;;4.91;68.01
48095;BME280;33874;52.070;-0.516;2023-04-26T05:24:13;101467.11;;;4.95;67.79
48095;BME280;33874;52.070;-0.516;2023-04-26T05:26:41;101466.95;;;4.98;67.59
48095;BME280;33874;52.070;-0.516;2023-04-26T05:29:13;101471.31;;;5.01;67.58
48095;BME280;33874;52.070;-0.516;2023-04-26T05:31:49;101472.55;;;5.03;67.43
48095;BME280;33874;52.070;-0.516;2023-04-26T05:34:28;101477.63;;;5.07;67.56
48095;BME280;33874;52.070;-0.516;2023-04-26T05:36:56;101478.66;;;5.11;67.49
48095;BME280;33874;52.070;-0.516;2023-04-26T05:39:25;101480.17;;;5.15;67.39
48095;BME280;33874;52.070;-0.516;2023-04-26T05:42:00;101479.86;;;5.22;67.25
48095;BME280;33874;52.070;-0.516;2023-04-26T05:44:30;101476.56;;;5.28;67.20
48095;BME280;33874;52.070;-0.516;2023-04-26T05:46:58;101475.84;;;5.36;67.26
48095;BME280;33874;52.070;-0.516;2023-04-26T05:49:26;101475.66;;;5.42;67.13
48095;BME280;33874;52.070;-0.516;2023-04-26T05:52:03;101477.95;;;5.52;67.23
48095;BME280;33874;52.070;-0.516;2023-04-26T05:54:32;101478.60;;;5.60;67.16
48095;BME280;33874;52.070;-0.516;2023-04-26T05:57:00;101483.49;;;5.69;67.24
48095;BME280;33874;52.070;-0.516;2023-04-26T06:02:11;101487.69;;;5.86;67.03
48095;BME280;33874;52.070;-0.516;2023-04-26T06:04:40;101496.67;;;5.94;66.85
48095;BME280;33874;52.070;-0.516;2023-04-26T06:07:08;101498.59;;;6.00;67.09
48095;BME280;33874;52.070;-0.516;2023-04-26T06:09:36;101498.08;;;6.07;66.81
48095;BME280;33874;52.070;-0.516;2023-04-26T06:12:05;101497.97;;;6.12;66.74
48095;BME280;33874;52.070;-0.516;2023-04-26T06:14:34;101498.77;;;6.16;66.68
48095;BME280;33874;52.070;-0.516;2023-04-26T06:17:01;101496.98;;;6.20;66.38
48095;BME280;33874;52.070;-0.516;2023-04-26T06:19:30;101495.88;;;6.24;66.53
48095;BME280;33874;52.070;-0.516;2023-04-26T06:22:01;101501.41;;;6.29;66.31
48095;BME280;33874;52.070;-0.516;2023-04-26T06:24:29;101499.09;;;6.33;66.34
48095;BME280;33874;52.070;-0.516;2023-04-26T06:26:57;101502.77;;;6.36;66.05
48095;BME280;33874;52.070;-0.516;2023-04-26T06:29:25;101497.05;;;6.42;65.92
48095;BME280;33874;52.070;-0.516;2023-04-26T06:31:54;101491.75;;;6.49;66.14
48095;BME280;33874;52.070;-0.516;2023-04-26T06:34:22;101489.21;;;6.57;66.16
48095;BME280;33874;52.070;-0.516;2023-04-26T06:36:50;101487.50;;;6.65;65.99
48095;BME280;33874;52.070;-0.516;2023-04-26T06:39:18;101484.37;;;6.74;66.13
48095;BME280;33874;52.070;-0.516;2023-04-26T06:41:46;101486.52;;;6.83;65.73
48095;BME280;33874;52.070;-0.516;2023-04-26T06:44:13;101493.36;;;6.91;65.91
48095;BME280;33874;52.070;-0.516;2023-04-26T06:46:41;101493.48;;;6.98;65.79
48095;BME280;33874;52.070;-0.516;2023-04-26T06:49:09;101496.41;;;7.08;65.73
48095;BME280;33874;52.070;-0.516;2023-04-26T06:51:40;101497.91;;;7.18;65.66
48095;BME280;33874;52.070;-0.516;2023-04-26T06:54:08;101502.56;;;7.28;65.55
48095;BME280;33874;52.070;-0.516;2023-04-26T06:59:18;101500.05;;;7.44;65.37
48095;BME280;33874;52.070;-0.516;2023-04-26T07:01:45;101502.66;;;7.53;65.26
48095;BME280;33874;52.070;-0.516;2023-04-26T07:04:14;101504.35;;;7.63;65.12
48095;BME280;33874;52.070;-0.516;2023-04-26T07:06:44;101506.36;;;7.73;65.06
48095;BME280;33874;52.070;-0.516;2023-04-26T07:09:12;101504.79;;;7.84;64.88
48095;BME280;33874;52.070;-0.516;2023-04-26T07:11:40;101502.33;;;7.93;64.49
48095;BME280;33874;52.070;-0.516;2023-04-26T07:14:09;101503.59;;;8.04;64.59
48095;BME280;33874;52.070;-0.516;2023-04-26T07:16:38;101499.59;;;8.14;64.32
48095;BME280;33874;52.070;-0.516;2023-04-26T07:19:06;101501.84;;;8.23;64.20
48095;BME280;33874;52.070;-0.516;2023-04-26T07:21:56;101494.80;;;8.32;64.00
48095;BME280;33874;52.070;-0.516;2023-04-26T07:24:23;101497.16;;;8.45;63.78
48095;BME280;33874;52.070;-0.516;2023-04-26T07:26:51;101498.02;;;8.59;63.97
48095;BME280;33874;52.070;-0.516;2023-04-26T07:29:19;101500.27;;;8.73;63.52
48095;BME280;33874;52.070;-0.516;2023-04-26T07:32:04;101497.47;;;8.83;63.33
48095;BME280;33874;52.070;-0.516;2023-04-26T07:34:33;101494.93;;;8.96;63.39
48095;BME280;33874;52.070;-0.516;2023-04-26T07:37:01;101491.99;;;9.03;63.04
48095;BME280;33874;52.070;-0.516;2023-04-26T07:42:24;101486.52;;;9.19;62.55
48095;BME280;33874;52.070;-0.516;2023-04-26T07:44:52;101484.77;;;9.27;62.39
48095;BME280;33874;52.070;-0.516;2023-04-26T07:47:20;101481.11;;;9.34;62.15
48095;BME280;33874;52.070;-0.516;2023-04-26T07:49:51;101478.39;;;9.43;61.87
48095;BME280;33874;52.070;-0.516;2023-04-26T07:52:19;101473.59;;;9.47;61.24
48095;BME280;33874;52.070;-0.516;2023-04-26T07:54:47;101475.19;;;9.51;61.11
48095;BME280;33874;52.070;-0.516;2023-04-26T07:57:15;101476.05;;;9.62;61.09
48095;BME280;33874;52.070;-0.516;2023-04-26T07:59:43;101477.70;;;9.73;60.97
48095;BME280;33874;52.070;-0.516;2023-04-26T08:02:11;101477.34;;;9.89;61.11
48095;BME280;33874;52.070;-0.516;2023-04-26T08:04:43;101472.53;;;10.02;60.68
48095;BME280;33874;52.070;-0.516;2023-04-26T08:07:15;101470.85;;;10.11;60.44
48095;BME280;33874;52.070;-0.516;2023-04-26T08:09:43;101475.51;;;10.20;60.22
48095;BME280;33874;52.070;-0.516;2023-04-26T08:12:12;101471.77;;;10.20;59.50
48095;BME280;33874;52.070;-0.516;2023-04-26T08:14:40;101471.63;;;10.25;59.40
48095;BME280;33874;52.070;-0.516;2023-04-26T08:17:08;101470.95;;;10.27;59.31
48095;BME280;33874;52.070;-0.516;2023-04-26T08:19:42;101473.38;;;10.35;59.26
48095;BME280;33874;52.070;-0.516;2023-04-26T08:22:10;101479.02;;;10.46;59.26
48095;BME280;33874;52.070;-0.516;2023-04-26T08:24:38;101471.55;;;10.57;59.01
48095;BME280;33874;52.070;-0.516;2023-04-26T08:27:06;101475.70;;;10.68;58.93
48095;BME280;33874;52.070;-0.516;2023-04-26T08:29:34;101475.02;;;10.79;58.72
48095;BME280;33874;52.070;-0.516;2023-04-26T08:32:02;101478.23;;;10.83;58.16
48095;BME280;33874;52.070;-0.516;2023-04-26T08:34:30;101481.29;;;10.92;58.23
48095;BME280;33874;52.070;-0.516;2023-04-26T08:36:58;101481.46;;;11.01;58.01
48095;BME280;33874;52.070;-0.516;2023-04-26T08:39:39;101480.06;;;11.03;57.48
48095;BME280;33874;52.070;-0.516;2023-04-26T08:42:13;101482.89;;;11.08;57.34
48095;BME280;33874;52.070;-0.516;2023-04-26T08:44:43;101480.71;;;11.12;57.02
48095;BME280;33874;52.070;-0.516;2023-04-26T08:49:45;101488.85;;;11.11;56.62
48095;BME280;33874;52.070;-0.516;2023-04-26T08:52:21;101488.94;;;11.12;56.65
48095;BME280;33874;52.070;-0.516;2023-04-26T08:54:51;101483.59;;;11.06;56.16
48095;BME280;33874;52.070;-0.516;2023-04-26T08:57:21;101483.90;;;11.02;56.05
48095;BME280;33874;52.070;-0.516;2023-04-26T08:59:51;101486.98;;;10.98;55.98
48095;BME280;33874;52.070;-0.516;2023-04-26T09:02:21;101484.84;;;10.96;55.66
48095;BME280;33874;52.070;-0.516;2023-04-26T09:04:50;101482.52;;;10.94;55.56
48095;BME280;33874;52.070;-0.516;2023-04-26T09:09:56;101484.71;;;11.21;55.51
48095;BME280;33874;52.070;-0.516;2023-04-26T09:12:25;101481.30;;;11.47;55.38
48095;BME280;33874;52.070;-0.516;2023-04-26T09:14:53;101476.98;;;11.74;54.84
48095;BME280;33874;52.070;-0.516;2023-04-26T09:17:23;101471.50;;;11.94;54.05
48095;BME280;33874;52.070;-0.516;2023-04-26T09:19:51;101465.63;;;12.09;53.06
48095;BME280;33874;52.070;-0.516;2023-04-26T09:22:28;101472.60;;;12.21;53.13
48095;BME280;33874;52.070;-0.516;2023-04-26T09:24:56;101474.42;;;12.48;53.27
48095;BME280;33874;52.070;-0.516;2023-04-26T09:27:59;101476.11;;;12.74;52.78
48095;BME280;33874;52.070;-0.516;2023-04-26T09:30:21;101478.18;;;12.90;52.27
48095;BME280;33874;52.070;-0.516;2023-04-26T09:32:56;101475.85;;;13.12;52.44
48095;BME280;33874;52.070;-0.516;2023-04-26T09:37:55;101474.01;;;13.23;50.10
48095;BME280;33874;52.070;-0.516;2023-04-26T09:40:55;101469.48;;;13.14;50.16
48095;BME280;33874;52.070;-0.516;2023-04-26T09:43:26;101471.73;;;13.10;50.34
48095;BME280;33874;52.070;-0.516;2023-04-26T09:45:56;101473.60;;;13.11;50.63
48095;BME280;33874;52.070;-0.516;2023-04-26T09:48:25;101464.77;;;13.18;50.47
48095;BME280;33874;52.070;-0.516;2023-04-26T09:50:56;101471.70;;;13.17;49.94
48095;BME280;33874;52.070;-0.516;2023-04-26T09:56:09;101471.74;;;13.23;49.67
48095;BME280;33874;52.070;-0.516;2023-04-26T09:58:54;101469.52;;;13.27;49.41
48095;BME280;33874;52.070;-0.516;2023-04-26T10:01:36;101467.56;;;13.29;48.80
48095;BME280;33874;52.070;-0.516;2023-04-26T10:04:05;101464.41;;;13.45;49.04
48095;BME280;33874;52.070;-0.516;2023-04-26T10:06:55;101463.14;;;13.70;49.18
48095;BME280;33874;52.070;-0.516;2023-04-26T10:09:22;101456.23;;;13.98;48.91
48095;BME280;33874;52.070;-0.516;2023-04-26T10:11:50;101460.15;;;14.22;48.68
48095;BME280;33874;52.070;-0.516;2023-04-26T10:14:18;101455.09;;;14.43;48.55
48095;BME280;33874;52.070;-0.516;2023-04-26T10:16:46;101457.09;;;14.56;48.36
48095;BME280;33874;52.070;-0.516;2023-04-26T10:19:15;101458.39;;;14.62;47.95
48095;BME280;33874;52.070;-0.516;2023-04-26T10:21:43;101459.26;;;14.63;47.64
48095;BME280;33874;52.070;-0.516;2023-04-26T10:24:12;101458.42;;;14.65;46.94
48095;BME280;33874;52.070;-0.516;2023-04-26T10:26:50;101453.70;;;14.59;46.58
48095;BME280;33874;52.070;-0.516;2023-04-26T10:29:25;101452.44;;;14.55;46.67
48095;BME280;33874;52.070;-0.516;2023-04-26T10:34:36;101450.00;;;14.57;46.65
48095;BME280;33874;52.070;-0.516;2023-04-26T10:39:35;101451.13;;;14.54;46.91
48095;BME280;33874;52.070;-0.516;2023-04-26T10:44:56;101447.98;;;14.47;46.79
48095;BME280;33874;52.070;-0.516;2023-04-26T10:47:26;101445.92;;;14.27;45.96
48095;BME280;33874;52.070;-0.516;2023-04-26T10:50:17;101443.20;;;14.04;46.34
48095;BME280;33874;52.070;-0.516;2023-04-26T10:55:38;101438.73;;;13.96;46.88
48095;BME280;33874;52.070;-0.516;2023-04-26T10:58:26;101434.59;;;13.97;46.58
48095;BME280;33874;52.070;-0.516;2023-04-26T11:03:41;101427.48;;;13.80;45.83
48095;BME280;33874;52.070;-0.516;2023-04-26T11:06:10;101421.72;;;13.63;45.53
48095;BME280;33874;52.070;-0.516;2023-04-26T11:08:40;101423.05;;;13.54;45.55
48095;BME280;33874;52.070;-0.516;2023-04-26T11:11:10;101419.05;;;13.53;45.77
48095;BME280;33874;52.070;-0.516;2023-04-26T11:13:39;101415.46;;;13.54;45.39
48095;BME280;33874;52.070;-0.516;2023-04-26T11:16:08;101414.16;;;13.54;45.69
48095;BME280;33874;52.070;-0.516;2023-04-26T11:18:37;101410.20;;;13.67;45.51
48095;BME280;33874;52.070;-0.516;2023-04-26T11:21:06;101410.06;;;13.79;45.34
48095;BME280;33874;52.070;-0.516;2023-04-26T11:23:34;101412.52;;;13.89;45.46
48095;BME280;33874;52.070;-0.516;2023-04-26T11:26:03;101409.51;;;14.01;45.51
48095;BME280;33874;52.070;-0.516;2023-04-26T11:28:32;101403.89;;;14.14;45.60
48095;BME280;33874;52.070;-0.516;2023-04-26T11:31:02;101403.44;;;14.29;45.58
48095;BME280;33874;52.070;-0.516;2023-04-26T11:33:31;101403.75;;;14.42;45.63
48095;BME280;33874;52.070;-0.516;2023-04-26T11:36:01;101404.51;;;14.47;44.80
48095;BME280;33874;52.070;-0.516;2023-04-26T11:38:29;101402.35;;;14.41;44.59
48095;BME280;33874;52.070;-0.516;2023-04-26T11:40:57;101401.95;;;14.50;45.22
48095;BME280;33874;52.070;-0.516;2023-04-26T11:43:38;101400.34;;;14.68;45.39
48095;BME280;33874;52.070;-0.516;2023-04-26T11:46:07;101399.54;;;14.84;45.25
48095;BME280;33874;52.070;-0.516;2023-04-26T11:48:37;101394.11;;;14.83;44.56
48095;BME280;33874;52.070;-0.516;2023-04-26T11:51:06;101395.60;;;14.82;44.53
48095;BME280;33874;52.070;-0.516;2023-04-26T11:53:35;101398.59;;;14.86;44.55
48095;BME280;33874;52.070;-0.516;2023-04-26T11:56:14;101398.14;;;14.85;44.45
48095;BME280;33874;52.070;-0.516;2023-04-26T11:58:47;101403.32;;;14.77;44.05
48095;BME280;33874;52.070;-0.516;2023-04-26T12:01:19;101404.80;;;14.67;44.06
48095;BME280;33874;52.070;-0.516;2023-04-26T12:03:50;101398.89;;;14.50;43.73
48095;BME280;33874;52.070;-0.516;2023-04-26T12:06:20;101405.80;;;14.30;44.08
48095;BME280;33874;52.070;-0.516;2023-04-26T12:08:53;101404.70;;;14.15;44.35
48095;BME280;33874;52.070;-0.516;2023-04-26T12:11:23;101403.73;;;14.02;44.03
48095;BME280;33874;52.070;-0.516;2023-04-26T12:13:51;101404.73;;;13.91;43.98
48095;BME280;33874;52.070;-0.516;2023-04-26T12:16:20;101403.81;;;13.74;43.93
48095;BME280;33874;52.070;-0.516;2023-04-26T12:18:54;101404.45;;;13.58;43.96
48095;BME280;33874;52.070;-0.516;2023-04-26T12:21:23;101400.67;;;13.49;43.67
48095;BME280;33874;52.070;-0.516;2023-04-26T12:23:55;101403.39;;;13.38;43.55
48095;BME280;33874;52.070;-0.516;2023-04-26T12:26:38;101406.44;;;13.31;43.52
48095;BME280;33874;52.070;-0.516;2023-04-26T12:29:06;101409.86;;;13.27;43.53
48095;BME280;33874;52.070;-0.516;2023-04-26T12:31:35;101413.02;;;13.22;43.66
48095;BME280;33874;52.070;-0.516;2023-04-26T12:34:03;101409.90;;;13.17;43.53
48095;BME280;33874;52.070;-0.516;2023-04-26T12:36:31;101411.29;;;13.07;43.52
48095;BME280;33874;52.070;-0.516;2023-04-26T12:39:02;101412.84;;;12.99;43.88
48095;BME280;33874;52.070;-0.516;2023-04-26T12:41:32;101413.21;;;12.93;43.99
48095;BME280;33874;52.070;-0.516;2023-04-26T12:44:00;101410.05;;;12.82;44.07
48095;BME280;33874;52.070;-0.516;2023-04-26T12:46:29;101409.47;;;12.79;44.20
48095;BME280;33874;52.070;-0.516;2023-04-26T12:48:57;101406.32;;;12.78;44.43
48095;BME280;33874;52.070;-0.516;2023-04-26T12:51:27;101411.92;;;12.83;44.75
48095;BME280;33874;52.070;-0.516;2023-04-26T12:53:55;101413.83;;;12.83;44.53
48095;BME280;33874;52.070;-0.516;2023-04-26T12:56:23;101411.70;;;12.82;44.19
48095;BME280;33874;52.070;-0.516;2023-04-26T12:58:52;101411.37;;;12.83;44.41
48095;BME280;33874;52.070;-0.516;2023-04-26T13:01:20;101414.85;;;12.88;44.37
48095;BME280;33874;52.070;-0.516;2023-04-26T13:03:48;101412.29;;;12.91;43.93
48095;BME280;33874;52.070;-0.516;2023-04-26T13:06:16;101415.92;;;12.86;43.65
48095;BME280;33874;52.070;-0.516;2023-04-26T13:08:44;101414.16;;;12.77;43.84
48095;BME280;33874;52.070;-0.516;2023-04-26T13:11:14;101416.11;;;12.73;43.76
48095;BME280;33874;52.070;-0.516;2023-04-26T13:13:43;101419.08;;;12.67;43.68
48095;BME280;33874;52.070;-0.516;2023-04-26T13:16:11;101415.25;;;12.62;43.54
48095;BME280;33874;52.070;-0.516;2023-04-26T13:18:40;101419.61;;;12.59;43.70
48095;BME280;33874;52.070;-0.516;2023-04-26T13:21:08;101419.35;;;12.60;43.74
48095;BME280;33874;52.070;-0.516;2023-04-26T13:23:36;101423.42;;;12.59;43.99
48095;BME280;33874;52.070;-0.516;2023-04-26T13:26:04;101426.50;;;12.63;44.05
48095;BME280;33874;52.070;-0.516;2023-04-26T13:28:32;101426.80;;;12.65;44.10
48095;BME280;33874;52.070;-0.516;2023-04-26T13:31:00;101426.84;;;12.63;44.01
48095;BME280;33874;52.070;-0.516;2023-04-26T13:33:28;101421.88;;;12.61;44.13